PWSweather.com
Personal Weather Stations
Station Observations
SHAHALMS1
Eftra, Falkenberg, HA

EftraFalkenberg, HA

Lat: 56.85, Lon: 12.65

Elevation: 140

Station Type:

http://hem.passagen.se/risarp101

High Low Average
Temperature 86.5°F30.3°C 57.2°F14.0°C 70.5°F21.4°C
Dew Point 62.9°F17.2°C 53.9°F12.2°C 57.8°F14.3°C
Winds 11.3 mph 18.2 kmh Calm Calm 5.0 mph SSW8.0 kmh SSW
Wind Gusts 29.0 mph46.7 kmh -- 14.0 mph22.5 kmh
Humidity 94% 37% 68%
Pressure 29.98 in1015.2 mb 29.68 in1005.1 mb -
Precipitation 0.00 in0.0 mm - -
Hour Temp Dew Point Humidity Winds Wind Gusts Pressure Precip Precip Rate Daily Precip Total
12:00 AM 60.8°F16.0°C 57.8°F14.3°C 90% 0.5 mph WSW0.8 kmh WSW 3.9 mph6.3 kmh 29.95 in1014.2 mb 0.00 in0.0 mm 0.00 in0.0 mm 0.00 in0.0 mm
12:10 AM 60.6°F15.9°C 57.7°F14.3°C 90% 0.6 mph SW1.0 kmh SW 5.0 mph8.0 kmh 29.95 in1014.2 mb 0.00 in0.0 mm 0.00 in0.0 mm 0.00 in0.0 mm
12:20 AM 60.4°F15.8°C 57.8°F14.3°C 91% 1.4 mph WSW2.3 kmh WSW 6.1 mph9.8 kmh 29.98 in1015.2 mb 0.00 in0.0 mm 0.00 in0.0 mm 0.00 in0.0 mm
12:30 AM 60.4°F15.8°C 57.8°F14.3°C 91% 0.9 mph W1.4 kmh W 5.7 mph9.2 kmh 29.95 in1014.2 mb 0.00 in0.0 mm 0.00 in0.0 mm 0.00 in0.0 mm
12:40 AM 60.6°F15.9°C 58.3°F14.6°C 92% 1.8 mph W2.9 kmh W 5.7 mph9.2 kmh 29.95 in1014.2 mb 0.00 in0.0 mm 0.00 in0.0 mm 0.00 in0.0 mm
12:50 AM 60.6°F15.9°C 58.3°F14.6°C 92% 2.2 mph WSW3.5 kmh WSW 5.7 mph9.2 kmh 29.95 in1014.2 mb 0.00 in0.0 mm 0.00 in0.0 mm 0.00 in0.0 mm
01:00 AM 60.4°F15.8°C 58.1°F14.5°C 92% 0.5 mph WSW0.8 kmh WSW 3.9 mph6.3 kmh 29.95 in1014.2 mb 0.00 in0.0 mm 0.00 in0.0 mm 0.00 in0.0 mm
01:10 AM 60.4°F15.8°C 58.1°F14.5°C 92% 0.1 mph W0.2 kmh W 3.6 mph5.8 kmh 29.95 in1014.2 mb 0.00 in0.0 mm 0.00 in0.0 mm 0.00 in0.0 mm
01:20 AM 60.3°F15.7°C 57.6°F14.2°C 91% 0.3 mph W0.5 kmh W 3.6 mph5.8 kmh 29.95 in1014.2 mb 0.00 in0.0 mm 0.00 in0.0 mm 0.00 in0.0 mm
01:30 AM 60.1°F15.6°C 57.4°F14.1°C 91% 0.5 mph SW0.8 kmh SW 3.9 mph6.3 kmh 29.95 in1014.2 mb 0.00 in0.0 mm 0.00 in0.0 mm 0.00 in0.0 mm
01:40 AM 59.9°F15.5°C 57.3°F14.1°C 91% 0.8 mph WSW1.3 kmh WSW 3.9 mph6.3 kmh 29.95 in1014.2 mb 0.00 in0.0 mm 0.00 in0.0 mm 0.00 in0.0 mm
01:50 AM 59.7°F15.4°C 57.1°F13.9°C 91% Calm Calm -- 29.95 in1014.2 mb 0.00 in0.0 mm 0.00 in0.0 mm 0.00 in0.0 mm
02:00 AM 59.5°F15.3°C 56.9°F13.8°C 91% Calm Calm -- 29.92 in1013.2 mb 0.00 in0.0 mm 0.00 in0.0 mm 0.00 in0.0 mm
02:10 AM 59.2°F15.1°C 56.6°F13.7°C 91% Calm Calm -- 29.92 in1013.2 mb 0.00 in0.0 mm 0.00 in0.0 mm 0.00 in0.0 mm
02:20 AM 59.2°F15.1°C 56.6°F13.7°C 91% Calm Calm -- 29.92 in1013.2 mb 0.00 in0.0 mm 0.00 in0.0 mm 0.00 in0.0 mm
02:30 AM 58.8°F14.9°C 56.2°F13.4°C 91% Calm Calm -- 29.92 in1013.2 mb 0.00 in0.0 mm 0.00 in0.0 mm 0.00 in0.0 mm
02:40 AM 58.5°F14.7°C 55.8°F13.2°C 91% Calm Calm -- 29.92 in1013.2 mb 0.00 in0.0 mm 0.00 in0.0 mm 0.00 in0.0 mm
02:50 AM 58.3°F14.6°C 55.7°F13.2°C 91% Calm Calm -- 29.92 in1013.2 mb 0.00 in0.0 mm 0.00 in0.0 mm 0.00 in0.0 mm
03:00 AM 58.1°F14.5°C 55.5°F13.1°C 91% Calm Calm -- 29.89 in1012.2 mb 0.00 in0.0 mm 0.00 in0.0 mm 0.00 in0.0 mm
03:10 AM 57.9°F14.4°C 55.3°F12.9°C 91% Calm Calm -- 29.89 in1012.2 mb 0.00 in0.0 mm 0.00 in0.0 mm 0.00 in0.0 mm
03:20 AM 57.7°F14.3°C 55.1°F12.8°C 91% Calm Calm -- 29.89 in1012.2 mb 0.00 in0.0 mm 0.00 in0.0 mm 0.00 in0.0 mm
03:30 AM 57.7°F14.3°C 55.1°F12.8°C 91% Calm Calm -- 29.86 in1011.2 mb 0.00 in0.0 mm 0.00 in0.0 mm 0.00 in0.0 mm
03:40 AM 57.4°F14.1°C 54.8°F12.7°C 91% Calm Calm -- 29.86 in1011.2 mb 0.00 in0.0 mm 0.00 in0.0 mm 0.00 in0.0 mm
03:50 AM 57.2°F14.0°C 54.6°F12.6°C 91% Calm Calm -- 29.86 in1011.2 mb 0.00 in0.0 mm 0.00 in0.0 mm 0.00 in0.0 mm
04:00 AM 57.6°F14.2°C 55.3°F12.9°C 92% 0.2 mph S0.3 kmh S 1.8 mph2.9 kmh 29.89 in1012.2 mb 0.00 in0.0 mm 0.00 in0.0 mm 0.00 in0.0 mm
04:10 AM 57.6°F14.2°C 55.3°F12.9°C 92% Calm Calm -- 29.89 in1012.2 mb 0.00 in0.0 mm 0.00 in0.0 mm 0.00 in0.0 mm
04:20 AM 57.9°F14.4°C 55.9°F13.3°C 93% 1.2 mph S1.9 kmh S 5.4 mph8.7 kmh 29.89 in1012.2 mb 0.00 in0.0 mm 0.00 in0.0 mm 0.00 in0.0 mm
04:30 AM 58.6°F14.8°C 56.9°F13.8°C 94% 2.3 mph S3.7 kmh S 7.9 mph12.7 kmh 29.89 in1012.2 mb 0.00 in0.0 mm 0.00 in0.0 mm 0.00 in0.0 mm
04:40 AM 59.2°F15.1°C 57.5°F14.2°C 94% 0.5 mph S0.8 kmh S 4.7 mph7.6 kmh 29.89 in1012.2 mb 0.00 in0.0 mm 0.00 in0.0 mm 0.00 in0.0 mm
04:50 AM 59.7°F15.4°C 58.0°F14.4°C 94% 0.2 mph SW0.3 kmh SW 2.5 mph4.0 kmh 29.89 in1012.2 mb 0.00 in0.0 mm 0.00 in0.0 mm 0.00 in0.0 mm
05:00 AM 60.4°F15.8°C 58.7°F14.8°C 94% 0.4 mph S0.6 kmh S 4.3 mph6.9 kmh 29.89 in1012.2 mb 0.00 in0.0 mm 0.00 in0.0 mm 0.00 in0.0 mm
05:10 AM 61.3°F16.3°C 59.6°F15.3°C 94% 1.9 mph S3.1 kmh S 8.9 mph14.3 kmh 29.89 in1012.2 mb 0.00 in0.0 mm 0.00 in0.0 mm 0.00 in0.0 mm
05:20 AM 61.7°F16.5°C 60.0°F15.6°C 94% 2.5 mph S4.0 kmh S 6.8 mph10.9 kmh 29.89 in1012.2 mb 0.00 in0.0 mm 0.00 in0.0 mm 0.00 in0.0 mm
05:30 AM 61.9°F16.6°C 59.8°F15.4°C 93% 2.1 mph S3.4 kmh S 7.5 mph12.1 kmh 29.86 in1011.2 mb 0.00 in0.0 mm 0.00 in0.0 mm 0.00 in0.0 mm
05:40 AM 62.4°F16.9°C 60.1°F15.6°C 92% 1.1 mph S1.8 kmh S 7.5 mph12.1 kmh 29.86 in1011.2 mb 0.00 in0.0 mm 0.00 in0.0 mm 0.00 in0.0 mm
05:50 AM 62.6°F17.0°C 59.6°F15.3°C 90% 1.2 mph S1.9 kmh S 8.9 mph14.3 kmh 29.86 in1011.2 mb 0.00 in0.0 mm 0.00 in0.0 mm 0.00 in0.0 mm
06:00 AM 63.0°F17.2°C 59.0°F15.0°C 87% 2.5 mph S4.0 kmh S 12.5 mph20.1 kmh 29.86 in1011.2 mb 0.00 in0.0 mm 0.00 in0.0 mm 0.00 in0.0 mm
06:10 AM 63.5°F17.5°C 59.6°F15.3°C 87% 1.5 mph S2.4 kmh S 6.4 mph10.3 kmh 29.86 in1011.2 mb 0.00 in0.0 mm 0.00 in0.0 mm 0.00 in0.0 mm
06:20 AM 64.0°F17.8°C 59.4°F15.2°C 85% 4.1 mph S6.6 kmh S 10.7 mph17.2 kmh 29.86 in1011.2 mb 0.00 in0.0 mm 0.00 in0.0 mm 0.00 in0.0 mm
06:30 AM 64.6°F18.1°C 60.3°F15.7°C 86% 2.6 mph SSE4.2 kmh SSE 10.0 mph16.1 kmh 29.83 in1010.2 mb 0.00 in0.0 mm 0.00 in0.0 mm 0.00 in0.0 mm
06:40 AM 65.1°F18.4°C 60.8°F16.0°C 86% 2.6 mph SE4.2 kmh SE 8.6 mph13.8 kmh 29.83 in1010.2 mb 0.00 in0.0 mm 0.00 in0.0 mm 0.00 in0.0 mm
06:50 AM 66.0°F18.9°C 60.7°F15.9°C 83% 2.0 mph S3.2 kmh S 10.0 mph16.1 kmh 29.83 in1010.2 mb 0.00 in0.0 mm 0.00 in0.0 mm 0.00 in0.0 mm
07:00 AM 66.6°F19.2°C 60.2°F15.7°C 80% 2.8 mph S4.5 kmh S 11.8 mph19.0 kmh 29.83 in1010.2 mb 0.00 in0.0 mm 0.00 in0.0 mm 0.00 in0.0 mm
07:10 AM 67.5°F19.7°C 60.4°F15.8°C 78% 2.9 mph S4.7 kmh S 7.2 mph11.6 kmh 29.83 in1010.2 mb 0.00 in0.0 mm 0.00 in0.0 mm 0.00 in0.0 mm
07:20 AM 68.0°F20.0°C 59.8°F15.4°C 75% 3.8 mph S6.1 kmh S 9.7 mph15.6 kmh 29.83 in1010.2 mb 0.00 in0.0 mm 0.00 in0.0 mm 0.00 in0.0 mm
07:30 AM 69.1°F20.6°C 60.4°F15.8°C 74% 3.9 mph S6.3 kmh S 9.3 mph15.0 kmh 29.83 in1010.2 mb 0.00 in0.0 mm 0.00 in0.0 mm 0.00 in0.0 mm
07:40 AM 70.5°F21.4°C 60.3°F15.7°C 70% 5.4 mph S8.7 kmh S 15.7 mph25.3 kmh 29.83 in1010.2 mb 0.00 in0.0 mm 0.00 in0.0 mm 0.00 in0.0 mm
07:50 AM 71.8°F22.1°C 59.4°F15.2°C 65% 4.0 mph S6.4 kmh S 9.3 mph15.0 kmh 29.83 in1010.2 mb 0.00 in0.0 mm 0.00 in0.0 mm 0.00 in0.0 mm
08:00 AM 73.0°F22.8°C 59.2°F15.1°C 62% 3.9 mph S6.3 kmh S 11.1 mph17.9 kmh 29.83 in1010.2 mb 0.00 in0.0 mm 0.00 in0.0 mm 0.00 in0.0 mm
08:10 AM 74.7°F23.7°C 59.4°F15.2°C 59% 3.2 mph S5.1 kmh S 14.0 mph22.5 kmh 29.83 in1010.2 mb 0.00 in0.0 mm 0.00 in0.0 mm 0.00 in0.0 mm
08:20 AM 75.2°F24.0°C 57.9°F14.4°C 55% 5.5 mph S8.9 kmh S 12.5 mph20.1 kmh 29.83 in1010.2 mb 0.00 in0.0 mm 0.00 in0.0 mm 0.00 in0.0 mm
08:30 AM 75.9°F24.4°C 58.1°F14.5°C 54% 4.6 mph S7.4 kmh S 15.7 mph25.3 kmh 29.83 in1010.2 mb 0.00 in0.0 mm 0.00 in0.0 mm 0.00 in0.0 mm
08:40 AM 76.5°F24.7°C 57.0°F13.9°C 51% 5.7 mph S9.2 kmh S 17.2 mph27.7 kmh 29.83 in1010.2 mb 0.00 in0.0 mm 0.00 in0.0 mm 0.00 in0.0 mm
08:50 AM 77.2°F25.1°C 57.7°F14.3°C 51% 4.4 mph SSE7.1 kmh SSE 14.3 mph23.0 kmh 29.83 in1010.2 mb 0.00 in0.0 mm 0.00 in0.0 mm 0.00 in0.0 mm
09:00 AM 76.8°F24.9°C 57.3°F14.1°C 51% 7.0 mph S11.3 kmh S 20.8 mph33.5 kmh 29.83 in1010.2 mb 0.00 in0.0 mm 0.00 in0.0 mm 0.00 in0.0 mm
09:10 AM 77.4°F25.2°C 58.4°F14.7°C 52% 5.5 mph S8.9 kmh S 17.9 mph28.8 kmh 29.83 in1010.2 mb 0.00 in0.0 mm 0.00 in0.0 mm 0.00 in0.0 mm
09:20 AM 77.9°F25.5°C 57.8°F14.3°C 50% 4.5 mph S7.2 kmh S 13.6 mph21.9 kmh 29.83 in1010.2 mb 0.00 in0.0 mm 0.00 in0.0 mm 0.00 in0.0 mm
09:30 AM 78.4°F25.8°C 58.8°F14.9°C 51% 5.1 mph S8.2 kmh S 10.0 mph16.1 kmh 29.80 in1009.1 mb 0.00 in0.0 mm 0.00 in0.0 mm 0.00 in0.0 mm
09:40 AM 79.2°F26.2°C 58.9°F14.9°C 50% 5.3 mph S8.5 kmh S 14.0 mph22.5 kmh 29.80 in1009.1 mb 0.00 in0.0 mm 0.00 in0.0 mm 0.00 in0.0 mm
09:50 AM 79.9°F26.6°C 57.8°F14.3°C 47% 4.9 mph S7.9 kmh S 11.8 mph19.0 kmh 29.80 in1009.1 mb 0.00 in0.0 mm 0.00 in0.0 mm 0.00 in0.0 mm
10:00 AM 80.6°F27.0°C 58.5°F14.7°C 47% 5.2 mph S8.4 kmh S 16.1 mph25.9 kmh 29.80 in1009.1 mb 0.00 in0.0 mm 0.00 in0.0 mm 0.00 in0.0 mm
10:10 AM 81.1°F27.3°C 57.8°F14.3°C 45% 5.6 mph S9.0 kmh S 13.6 mph21.9 kmh 29.80 in1009.1 mb 0.00 in0.0 mm 0.00 in0.0 mm 0.00 in0.0 mm
10:20 AM 81.1°F27.3°C 57.2°F14.0°C 44% 6.5 mph S10.5 kmh S 14.0 mph22.5 kmh 29.80 in1009.1 mb 0.00 in0.0 mm 0.00 in0.0 mm 0.00 in0.0 mm
10:30 AM 81.3°F27.4°C 56.7°F13.7°C 43% 7.1 mph S11.4 kmh S 19.7 mph31.7 kmh 29.77 in1008.1 mb 0.00 in0.0 mm 0.00 in0.0 mm 0.00 in0.0 mm
10:40 AM 81.7°F27.6°C 57.6°F14.2°C 44% 6.5 mph S10.5 kmh S 17.5 mph28.2 kmh 29.77 in1008.1 mb 0.00 in0.0 mm 0.00 in0.0 mm 0.00 in0.0 mm
10:50 AM 81.5°F27.5°C 57.5°F14.2°C 44% 6.7 mph S10.8 kmh S 20.4 mph32.8 kmh 29.77 in1008.1 mb 0.00 in0.0 mm 0.00 in0.0 mm 0.00 in0.0 mm
11:00 AM 81.9°F27.7°C 57.2°F14.0°C 43% 6.8 mph S10.9 kmh S 20.8 mph33.5 kmh 29.77 in1008.1 mb 0.00 in0.0 mm 0.00 in0.0 mm 0.00 in0.0 mm
11:10 AM 82.2°F27.9°C 57.5°F14.2°C 43% 6.9 mph S11.1 kmh S 13.6 mph21.9 kmh 29.77 in1008.1 mb 0.00 in0.0 mm 0.00 in0.0 mm 0.00 in0.0 mm
11:20 AM 82.8°F28.2°C 57.3°F14.1°C 42% 7.9 mph SSW12.7 kmh SSW 16.5 mph26.6 kmh 29.77 in1008.1 mb 0.00 in0.0 mm 0.00 in0.0 mm 0.00 in0.0 mm
11:30 AM 82.8°F28.2°C 56.0°F13.3°C 40% 8.3 mph S13.4 kmh S 17.9 mph28.8 kmh 29.74 in1007.1 mb 0.00 in0.0 mm 0.00 in0.0 mm 0.00 in0.0 mm
11:40 AM 83.1°F28.4°C 57.0°F13.9°C 41% 8.3 mph S13.4 kmh S 20.8 mph33.5 kmh 29.74 in1007.1 mb 0.00 in0.0 mm 0.00 in0.0 mm 0.00 in0.0 mm
11:50 AM 84.0°F28.9°C 57.1°F13.9°C 40% 6.3 mph S10.1 kmh S 13.6 mph21.9 kmh 29.74 in1007.1 mb 0.00 in0.0 mm 0.00 in0.0 mm 0.00 in0.0 mm
12:00 PM 84.4°F29.1°C 55.3°F12.9°C 37% 8.0 mph S12.9 kmh S 25.4 mph40.9 kmh 29.74 in1007.1 mb 0.00 in0.0 mm 0.00 in0.0 mm 0.00 in0.0 mm
12:10 PM 84.4°F29.1°C 56.0°F13.3°C 38% 8.6 mph S13.8 kmh S 24.3 mph39.1 kmh 29.74 in1007.1 mb 0.00 in0.0 mm 0.00 in0.0 mm 0.00 in0.0 mm
12:20 PM 83.5°F28.6°C 56.6°F13.7°C 40% 7.2 mph S11.6 kmh S 13.6 mph21.9 kmh 29.77 in1008.1 mb 0.00 in0.0 mm 0.00 in0.0 mm 0.00 in0.0 mm
12:30 PM 84.2°F29.0°C 57.3°F14.1°C 40% 6.9 mph S11.1 kmh S 22.9 mph36.9 kmh 29.74 in1007.1 mb 0.00 in0.0 mm 0.00 in0.0 mm 0.00 in0.0 mm
12:40 PM 84.4°F29.1°C 56.7°F13.7°C 39% 9.2 mph S14.8 kmh S 21.1 mph34.0 kmh 29.74 in1007.1 mb 0.00 in0.0 mm 0.00 in0.0 mm 0.00 in0.0 mm
12:50 PM 85.3°F29.6°C 56.8°F13.8°C 38% 7.3 mph S11.7 kmh S 19.3 mph31.1 kmh 29.74 in1007.1 mb 0.00 in0.0 mm 0.00 in0.0 mm 0.00 in0.0 mm
01:00 PM 85.3°F29.6°C 56.8°F13.8°C 38% 7.2 mph S11.6 kmh S 19.3 mph31.1 kmh 29.71 in1006.1 mb 0.00 in0.0 mm 0.00 in0.0 mm 0.00 in0.0 mm
01:10 PM 85.5°F29.7°C 56.2°F13.4°C 37% 7.7 mph S12.4 kmh S 17.2 mph27.7 kmh 29.71 in1006.1 mb 0.00 in0.0 mm 0.00 in0.0 mm 0.00 in0.0 mm
01:20 PM 84.9°F29.4°C 56.5°F13.6°C 38% 5.9 mph S9.5 kmh S 21.8 mph35.1 kmh 29.71 in1006.1 mb 0.00 in0.0 mm 0.00 in0.0 mm 0.00 in0.0 mm
01:30 PM 84.9°F29.4°C 56.5°F13.6°C 38% 6.2 mph S10.0 kmh S 16.1 mph25.9 kmh 29.71 in1006.1 mb 0.00 in0.0 mm 0.00 in0.0 mm 0.00 in0.0 mm
01:40 PM 85.1°F29.5°C 56.6°F13.7°C 38% 7.1 mph S11.4 kmh S 20.4 mph32.8 kmh 29.71 in1006.1 mb 0.00 in0.0 mm 0.00 in0.0 mm 0.00 in0.0 mm
01:50 PM 85.5°F29.7°C 58.4°F14.7°C 40% 8.6 mph S13.8 kmh S 20.8 mph33.5 kmh 29.71 in1006.1 mb 0.00 in0.0 mm 0.00 in0.0 mm 0.00 in0.0 mm
02:00 PM 86.0°F30.0°C 57.4°F14.1°C 38% 8.0 mph S12.9 kmh S 27.9 mph44.9 kmh 29.71 in1006.1 mb 0.00 in0.0 mm 0.00 in0.0 mm 0.00 in0.0 mm
02:10 PM 86.5°F30.3°C 57.9°F14.4°C 38% 9.5 mph S15.3 kmh S 24.7 mph39.8 kmh 29.71 in1006.1 mb 0.00 in0.0 mm 0.00 in0.0 mm 0.00 in0.0 mm
02:20 PM 86.4°F30.2°C 58.5°F14.7°C 39% 8.2 mph S13.2 kmh S 20.0 mph32.2 kmh 29.71 in1006.1 mb 0.00 in0.0 mm 0.00 in0.0 mm 0.00 in0.0 mm
02:30 PM 86.2°F30.1°C 57.6°F14.2°C 38% 7.8 mph S12.6 kmh S 17.2 mph27.7 kmh 29.71 in1006.1 mb 0.00 in0.0 mm 0.00 in0.0 mm 0.00 in0.0 mm
02:40 PM 85.6°F29.8°C 57.8°F14.3°C 39% 8.8 mph S14.2 kmh S 20.0 mph32.2 kmh 29.71 in1006.1 mb 0.00 in0.0 mm 0.00 in0.0 mm 0.00 in0.0 mm
02:50 PM 84.6°F29.2°C 57.6°F14.2°C 40% 10.3 mph S16.6 kmh S 25.1 mph40.4 kmh 29.68 in1005.1 mb 0.00 in0.0 mm 0.00 in0.0 mm 0.00 in0.0 mm
03:00 PM 83.8°F28.8°C 59.6°F15.3°C 44% 10.6 mph SSW17.1 kmh SSW 27.6 mph44.4 kmh 29.68 in1005.1 mb 0.00 in0.0 mm 0.00 in0.0 mm 0.00 in0.0 mm
03:10 PM 82.6°F28.1°C 59.7°F15.4°C 46% 10.5 mph S16.9 kmh S 24.7 mph39.8 kmh 29.68 in1005.1 mb 0.00 in0.0 mm 0.00 in0.0 mm 0.00 in0.0 mm
03:20 PM 81.7°F27.6°C 59.5°F15.3°C 47% 7.6 mph S12.2 kmh S 24.7 mph39.8 kmh 29.68 in1005.1 mb 0.00 in0.0 mm 0.00 in0.0 mm 0.00 in0.0 mm
03:30 PM 81.5°F27.5°C 59.9°F15.5°C 48% 9.2 mph S14.8 kmh S 20.8 mph33.5 kmh 29.71 in1006.1 mb 0.00 in0.0 mm 0.00 in0.0 mm 0.00 in0.0 mm
03:40 PM 80.4°F26.9°C 60.6°F15.9°C 51% 8.8 mph SSW14.2 kmh SSW 21.1 mph34.0 kmh 29.71 in1006.1 mb 0.00 in0.0 mm 0.00 in0.0 mm 0.00 in0.0 mm
03:50 PM 80.1°F26.7°C 61.4°F16.3°C 53% 9.0 mph SW14.5 kmh SW 24.3 mph39.1 kmh 29.68 in1005.1 mb 0.00 in0.0 mm 0.00 in0.0 mm 0.00 in0.0 mm
04:00 PM 80.1°F26.7°C 62.9°F17.2°C 56% 9.9 mph W15.9 kmh W 23.6 mph38.0 kmh 29.71 in1006.1 mb 0.00 in0.0 mm 0.00 in0.0 mm 0.00 in0.0 mm
04:10 PM 78.6°F25.9°C 61.6°F16.4°C 56% 6.8 mph W10.9 kmh W 17.5 mph28.2 kmh 29.71 in1006.1 mb 0.00 in0.0 mm 0.00 in0.0 mm 0.00 in0.0 mm
04:20 PM 77.2°F25.1°C 61.3°F16.3°C 58% 6.7 mph WNW10.8 kmh WNW 17.5 mph28.2 kmh 29.71 in1006.1 mb 0.00 in0.0 mm 0.00 in0.0 mm 0.00 in0.0 mm
04:30 PM 76.3°F24.6°C 61.4°F16.3°C 60% 9.0 mph WNW14.5 kmh WNW 27.2 mph43.8 kmh 29.74 in1007.1 mb 0.00 in0.0 mm 0.00 in0.0 mm 0.00 in0.0 mm
04:40 PM 74.8°F23.8°C 61.4°F16.3°C 63% 11.3 mph W18.2 kmh W 29.0 mph46.7 kmh 29.74 in1007.1 mb 0.00 in0.0 mm 0.00 in0.0 mm 0.00 in0.0 mm
04:50 PM 74.3°F23.5°C 61.8°F16.6°C 65% 9.3 mph WNW15.0 kmh WNW 27.9 mph44.9 kmh 29.74 in1007.1 mb 0.00 in0.0 mm 0.00 in0.0 mm 0.00 in0.0 mm
05:00 PM 73.8°F23.2°C 61.7°F16.5°C 66% 8.3 mph WNW13.4 kmh WNW 23.3 mph37.5 kmh 29.74 in1007.1 mb 0.00 in0.0 mm 0.00 in0.0 mm 0.00 in0.0 mm
05:10 PM 74.3°F23.5°C 60.9°F16.1°C 63% 8.0 mph WNW12.9 kmh WNW 17.5 mph28.2 kmh 29.74 in1007.1 mb 0.00 in0.0 mm 0.00 in0.0 mm 0.00 in0.0 mm
05:20 PM 74.7°F23.7°C 60.3°F15.7°C 61% 7.0 mph WNW11.3 kmh WNW 17.5 mph28.2 kmh 29.77 in1008.1 mb 0.00 in0.0 mm 0.00 in0.0 mm 0.00 in0.0 mm
05:30 PM 74.3°F23.5°C 59.0°F15.0°C 59% 8.3 mph WNW13.4 kmh WNW 28.3 mph45.5 kmh 29.77 in1008.1 mb 0.00 in0.0 mm 0.00 in0.0 mm 0.00 in0.0 mm
05:40 PM 73.8°F23.2°C 59.0°F15.0°C 60% 8.2 mph WNW13.2 kmh WNW 19.3 mph31.1 kmh 29.77 in1008.1 mb 0.00 in0.0 mm 0.00 in0.0 mm 0.00 in0.0 mm
05:50 PM 73.8°F23.2°C 59.5°F15.3°C 61% 5.5 mph NW8.9 kmh NW 12.9 mph20.8 kmh 29.77 in1008.1 mb 0.00 in0.0 mm 0.00 in0.0 mm 0.00 in0.0 mm
06:00 PM 73.4°F23.0°C 60.5°F15.8°C 64% 7.1 mph NW11.4 kmh NW 16.8 mph27.0 kmh 29.74 in1007.1 mb 0.00 in0.0 mm 0.00 in0.0 mm 0.00 in0.0 mm
06:10 PM 73.0°F22.8°C 59.2°F15.1°C 62% 5.6 mph WNW9.0 kmh WNW 14.0 mph22.5 kmh 29.74 in1007.1 mb 0.00 in0.0 mm 0.00 in0.0 mm 0.00 in0.0 mm
06:20 PM 72.9°F22.7°C 58.2°F14.6°C 60% 7.6 mph WNW12.2 kmh WNW 20.4 mph32.8 kmh 29.77 in1008.1 mb 0.00 in0.0 mm 0.00 in0.0 mm 0.00 in0.0 mm
06:30 PM 72.5°F22.5°C 57.4°F14.1°C 59% 8.2 mph WNW13.2 kmh WNW 26.8 mph43.1 kmh 29.74 in1007.1 mb 0.00 in0.0 mm 0.00 in0.0 mm 0.00 in0.0 mm
06:40 PM 72.1°F22.3°C 56.5°F13.6°C 58% 9.0 mph WNW14.5 kmh WNW 20.0 mph32.2 kmh 29.74 in1007.1 mb 0.00 in0.0 mm 0.00 in0.0 mm 0.00 in0.0 mm
06:50 PM 71.8°F22.1°C 56.7°F13.7°C 59% 7.1 mph WNW11.4 kmh WNW 16.5 mph26.6 kmh 29.77 in1008.1 mb 0.00 in0.0 mm 0.00 in0.0 mm 0.00 in0.0 mm
07:00 PM 71.4°F21.9°C 57.3°F14.1°C 61% 5.5 mph W8.9 kmh W 17.2 mph27.7 kmh 29.74 in1007.1 mb 0.00 in0.0 mm 0.00 in0.0 mm 0.00 in0.0 mm
07:10 PM 69.6°F20.9°C 56.0°F13.3°C 62% 7.2 mph WNW11.6 kmh WNW 19.7 mph31.7 kmh 29.74 in1007.1 mb 0.00 in0.0 mm 0.00 in0.0 mm 0.00 in0.0 mm
07:20 PM 68.9°F20.5°C 56.6°F13.7°C 65% 6.3 mph WNW10.1 kmh WNW 20.0 mph32.2 kmh 29.77 in1008.1 mb 0.00 in0.0 mm 0.00 in0.0 mm 0.00 in0.0 mm
07:30 PM 68.4°F20.2°C 57.0°F13.9°C 67% 5.9 mph WNW9.5 kmh WNW 16.8 mph27.0 kmh 29.74 in1007.1 mb 0.00 in0.0 mm 0.00 in0.0 mm 0.00 in0.0 mm
07:40 PM 68.0°F20.0°C 57.4°F14.1°C 69% 5.3 mph W8.5 kmh W 13.6 mph21.9 kmh 29.74 in1007.1 mb 0.00 in0.0 mm 0.00 in0.0 mm 0.00 in0.0 mm
07:50 PM 67.6°F19.8°C 58.3°F14.6°C 72% 6.5 mph WNW10.5 kmh WNW 19.7 mph31.7 kmh 29.74 in1007.1 mb 0.00 in0.0 mm 0.00 in0.0 mm 0.00 in0.0 mm
08:00 PM 67.5°F19.7°C 58.9°F14.9°C 74% 6.5 mph WNW10.5 kmh WNW 22.5 mph36.2 kmh 29.77 in1008.1 mb 0.00 in0.0 mm 0.00 in0.0 mm 0.00 in0.0 mm
08:10 PM 67.1°F19.5°C 58.5°F14.7°C 74% 7.7 mph WNW12.4 kmh WNW 19.3 mph31.1 kmh 29.77 in1008.1 mb 0.00 in0.0 mm 0.00 in0.0 mm 0.00 in0.0 mm
08:20 PM 66.2°F19.0°C 57.7°F14.3°C 74% 9.4 mph WNW15.1 kmh WNW 24.3 mph39.1 kmh 29.74 in1007.1 mb 0.00 in0.0 mm 0.00 in0.0 mm 0.00 in0.0 mm
08:30 PM 65.5°F18.6°C 57.7°F14.3°C 76% 6.3 mph W10.1 kmh W 17.9 mph28.8 kmh 29.77 in1008.1 mb 0.00 in0.0 mm 0.00 in0.0 mm 0.00 in0.0 mm
08:40 PM 64.8°F18.2°C 57.0°F13.9°C 76% 7.9 mph WNW12.7 kmh WNW 24.7 mph39.8 kmh 29.77 in1008.1 mb 0.00 in0.0 mm 0.00 in0.0 mm 0.00 in0.0 mm
08:50 PM 64.0°F17.8°C 56.3°F13.5°C 76% 6.9 mph WNW11.1 kmh WNW 22.2 mph35.7 kmh 29.77 in1008.1 mb 0.00 in0.0 mm 0.00 in0.0 mm 0.00 in0.0 mm
09:00 PM 63.7°F17.6°C 56.0°F13.3°C 76% 6.6 mph NW10.6 kmh NW 22.9 mph36.9 kmh 29.77 in1008.1 mb 0.00 in0.0 mm 0.00 in0.0 mm 0.00 in0.0 mm
09:10 PM 63.3°F17.4°C 55.6°F13.1°C 76% 6.5 mph W10.5 kmh W 17.2 mph27.7 kmh 29.77 in1008.1 mb 0.00 in0.0 mm 0.00 in0.0 mm 0.00 in0.0 mm
09:20 PM 63.0°F17.2°C 55.6°F13.1°C 77% 6.0 mph WNW9.7 kmh WNW 15.0 mph24.1 kmh 29.77 in1008.1 mb 0.00 in0.0 mm 0.00 in0.0 mm 0.00 in0.0 mm
09:30 PM 62.8°F17.1°C 55.8°F13.2°C 78% 5.3 mph W8.5 kmh W 12.2 mph19.6 kmh 29.80 in1009.1 mb 0.00 in0.0 mm 0.00 in0.0 mm 0.00 in0.0 mm
09:40 PM 62.8°F17.1°C 55.8°F13.2°C 78% 6.0 mph W9.7 kmh W 15.4 mph24.8 kmh 29.80 in1009.1 mb 0.00 in0.0 mm 0.00 in0.0 mm 0.00 in0.0 mm
09:50 PM 62.6°F17.0°C 55.6°F13.1°C 78% 6.6 mph W10.6 kmh W 16.5 mph26.6 kmh 29.77 in1008.1 mb 0.00 in0.0 mm 0.00 in0.0 mm 0.00 in0.0 mm
10:00 PM 62.6°F17.0°C 55.6°F13.1°C 78% 7.0 mph W11.3 kmh W 24.7 mph39.8 kmh 29.80 in1009.1 mb 0.00 in0.0 mm 0.00 in0.0 mm 0.00 in0.0 mm
10:10 PM 62.6°F17.0°C 55.6°F13.1°C 78% 5.2 mph W8.4 kmh W 10.4 mph16.7 kmh 29.80 in1009.1 mb 0.00 in0.0 mm 0.00 in0.0 mm 0.00 in0.0 mm
10:20 PM 62.4°F16.9°C 55.8°F13.2°C 79% 7.4 mph W11.9 kmh W 20.0 mph32.2 kmh 29.80 in1009.1 mb 0.00 in0.0 mm 0.00 in0.0 mm 0.00 in0.0 mm
10:30 PM 62.4°F16.9°C 55.8°F13.2°C 79% 5.7 mph WNW9.2 kmh WNW 14.0 mph22.5 kmh 29.80 in1009.1 mb 0.00 in0.0 mm 0.00 in0.0 mm 0.00 in0.0 mm
10:40 PM 62.6°F17.0°C 55.6°F13.1°C 78% 6.5 mph WNW10.5 kmh WNW 17.2 mph27.7 kmh 29.80 in1009.1 mb 0.00 in0.0 mm 0.00 in0.0 mm 0.00 in0.0 mm
10:50 PM 62.4°F16.9°C 55.8°F13.2°C 79% 5.7 mph WNW9.2 kmh WNW 19.3 mph31.1 kmh 29.80 in1009.1 mb 0.00 in0.0 mm 0.00 in0.0 mm 0.00 in0.0 mm
11:00 PM 62.2°F16.8°C 55.6°F13.1°C 79% 6.7 mph W10.8 kmh W 26.8 mph43.1 kmh 29.80 in1009.1 mb 0.00 in0.0 mm 0.00 in0.0 mm 0.00 in0.0 mm
11:10 PM 62.1°F16.7°C 55.1°F12.8°C 78% 7.6 mph WNW12.2 kmh WNW 21.1 mph34.0 kmh 29.80 in1009.1 mb 0.00 in0.0 mm 0.00 in0.0 mm 0.00 in0.0 mm
11:20 PM 62.1°F16.7°C 55.5°F13.1°C 79% 4.9 mph W7.9 kmh W 17.5 mph28.2 kmh 29.80 in1009.1 mb 0.00 in0.0 mm 0.00 in0.0 mm 0.00 in0.0 mm
11:30 PM 62.1°F16.7°C 55.1°F12.8°C 78% 6.1 mph W9.8 kmh W 14.0 mph22.5 kmh 29.80 in1009.1 mb 0.00 in0.0 mm 0.00 in0.0 mm 0.00 in0.0 mm
11:40 PM 61.7°F16.5°C 54.4°F12.4°C 77% 6.1 mph W9.8 kmh W 16.1 mph25.9 kmh 29.80 in1009.1 mb 0.00 in0.0 mm 0.00 in0.0 mm 0.00 in0.0 mm
11:50 PM 61.5°F16.4°C 53.9°F12.2°C 76% 5.5 mph W8.9 kmh W 10.0 mph16.1 kmh 29.80 in1009.1 mb 0.00 in0.0 mm 0.00 in0.0 mm 0.00 in0.0 mm